sensor_id;sensor_type;location;lat;lon;timestamp;P1;durP1;ratioP1;P2;durP2;ratioP2
55931;SDS011;41837;55.700;37.984;2022-10-13T00:01:30;6.85;;;2.90;;
55931;SDS011;41837;55.700;37.984;2022-10-13T00:03:56;11.98;;;3.00;;
55931;SDS011;41837;55.700;37.984;2022-10-13T00:06:23;10.73;;;3.35;;
55931;SDS011;41837;55.700;37.984;2022-10-13T00:08:49;6.72;;;2.92;;
55931;SDS011;41837;55.700;37.984;2022-10-13T00:11:22;9.40;;;3.05;;
55931;SDS011;41837;55.700;37.984;2022-10-13T00:13:48;6.72;;;2.53;;
55931;SDS011;41837;55.700;37.984;2022-10-13T00:16:16;6.35;;;2.80;;
55931;SDS011;41837;55.700;37.984;2022-10-13T00:18:42;8.82;;;2.78;;
55931;SDS011;41837;55.700;37.984;2022-10-13T00:21:09;7.93;;;2.95;;
55931;SDS011;41837;55.700;37.984;2022-10-13T00:23:36;6.57;;;2.80;;
55931;SDS011;41837;55.700;37.984;2022-10-13T00:26:03;8.70;;;3.17;;
55931;SDS011;41837;55.700;37.984;2022-10-13T00:28:30;9.23;;;3.05;;
55931;SDS011;41837;55.700;37.984;2022-10-13T00:30:56;8.88;;;3.10;;
55931;SDS011;41837;55.700;37.984;2022-10-13T00:33:22;7.70;;;2.97;;
55931;SDS011;41837;55.700;37.984;2022-10-13T00:35:48;5.93;;;2.60;;
55931;SDS011;41837;55.700;37.984;2022-10-13T00:38:17;12.13;;;3.30;;
55931;SDS011;41837;55.700;37.984;2022-10-13T00:40:44;9.82;;;3.00;;
55931;SDS011;41837;55.700;37.984;2022-10-13T00:43:15;8.60;;;2.92;;
55931;SDS011;41837;55.700;37.984;2022-10-13T00:45:41;10.50;;;2.80;;
55931;SDS011;41837;55.700;37.984;2022-10-13T00:48:07;8.05;;;3.15;;
55931;SDS011;41837;55.700;37.984;2022-10-13T00:50:37;7.53;;;3.03;;
55931;SDS011;41837;55.700;37.984;2022-10-13T00:53:04;7.03;;;3.13;;
55931;SDS011;41837;55.700;37.984;2022-10-13T00:55:32;8.20;;;2.92;;
55931;SDS011;41837;55.700;37.984;2022-10-13T00:57:59;7.45;;;3.03;;
55931;SDS011;41837;55.700;37.984;2022-10-13T01:00:29;7.65;;;3.50;;
55931;SDS011;41837;55.700;37.984;2022-10-13T01:02:55;13.27;;;3.60;;
55931;SDS011;41837;55.700;37.984;2022-10-13T01:05:21;10.90;;;3.58;;
55931;SDS011;41837;55.700;37.984;2022-10-13T01:07:48;8.68;;;3.38;;
55931;SDS011;41837;55.700;37.984;2022-10-13T01:10:15;8.93;;;3.90;;
55931;SDS011;41837;55.700;37.984;2022-10-13T01:13:11;5.50;;;2.90;;
55931;SDS011;41837;55.700;37.984;2022-10-13T01:15:40;9.07;;;3.55;;
55931;SDS011;41837;55.700;37.984;2022-10-13T01:28:31;14.88;;;3.70;;
55931;SDS011;41837;55.700;37.984;2022-10-13T01:31:07;9.07;;;3.28;;
55931;SDS011;41837;55.700;37.984;2022-10-13T01:36:14;8.80;;;3.80;;
55931;SDS011;41837;55.700;37.984;2022-10-13T01:41:12;8.43;;;3.83;;
55931;SDS011;41837;55.700;37.984;2022-10-13T01:48:35;12.48;;;4.15;;
55931;SDS011;41837;55.700;37.984;2022-10-13T01:51:02;14.02;;;4.10;;
55931;SDS011;41837;55.700;37.984;2022-10-13T01:53:28;9.30;;;4.15;;
55931;SDS011;41837;55.700;37.984;2022-10-13T01:55:56;6.80;;;3.80;;
55931;SDS011;41837;55.700;37.984;2022-10-13T01:58:23;7.85;;;3.80;;
55931;SDS011;41837;55.700;37.984;2022-10-13T02:01:13;12.07;;;3.92;;
55931;SDS011;41837;55.700;37.984;2022-10-13T02:03:43;13.32;;;3.33;;
55931;SDS011;41837;55.700;37.984;2022-10-13T02:06:37;14.60;;;4.28;;
55931;SDS011;41837;55.700;37.984;2022-10-13T02:11:36;13.50;;;4.30;;
55931;SDS011;41837;55.700;37.984;2022-10-13T02:19:14;15.05;;;4.25;;
55931;SDS011;41837;55.700;37.984;2022-10-13T02:21:42;12.35;;;4.70;;
55931;SDS011;41837;55.700;37.984;2022-10-13T02:24:09;16.15;;;4.55;;
55931;SDS011;41837;55.700;37.984;2022-10-13T02:26:35;10.18;;;3.95;;
55931;SDS011;41837;55.700;37.984;2022-10-13T02:29:12;14.13;;;4.18;;
55931;SDS011;41837;55.700;37.984;2022-10-13T02:31:39;13.98;;;4.63;;
55931;SDS011;41837;55.700;37.984;2022-10-13T02:34:05;21.92;;;4.93;;
55931;SDS011;41837;55.700;37.984;2022-10-13T02:36:31;15.52;;;4.25;;
55931;SDS011;41837;55.700;37.984;2022-10-13T02:38:57;16.60;;;4.55;;
55931;SDS011;41837;55.700;37.984;2022-10-13T02:41:24;10.43;;;4.32;;
55931;SDS011;41837;55.700;37.984;2022-10-13T02:43:49;10.57;;;3.85;;
55931;SDS011;41837;55.700;37.984;2022-10-13T02:46:16;9.25;;;3.90;;
55931;SDS011;41837;55.700;37.984;2022-10-13T02:48:43;10.70;;;4.40;;
55931;SDS011;41837;55.700;37.984;2022-10-13T02:51:09;12.20;;;4.65;;
55931;SDS011;41837;55.700;37.984;2022-10-13T02:53:35;19.85;;;4.70;;
55931;SDS011;41837;55.700;37.984;2022-10-13T02:56:02;7.57;;;4.10;;
55931;SDS011;41837;55.700;37.984;2022-10-13T02:58:29;13.95;;;4.20;;
55931;SDS011;41837;55.700;37.984;2022-10-13T03:01:06;9.32;;;4.32;;
55931;SDS011;41837;55.700;37.984;2022-10-13T03:03:32;8.75;;;4.07;;
55931;SDS011;41837;55.700;37.984;2022-10-13T03:05:58;12.85;;;4.82;;
55931;SDS011;41837;55.700;37.984;2022-10-13T03:08:25;12.15;;;4.78;;
55931;SDS011;41837;55.700;37.984;2022-10-13T03:10:50;14.63;;;5.10;;
55931;SDS011;41837;55.700;37.984;2022-10-13T03:13:16;9.38;;;4.35;;
55931;SDS011;41837;55.700;37.984;2022-10-13T03:15:42;14.48;;;4.53;;
55931;SDS011;41837;55.700;37.984;2022-10-13T03:18:08;11.55;;;4.53;;
55931;SDS011;41837;55.700;37.984;2022-10-13T03:20:35;11.07;;;4.75;;
55931;SDS011;41837;55.700;37.984;2022-10-13T03:23:01;9.43;;;5.22;;
55931;SDS011;41837;55.700;37.984;2022-10-13T03:25:27;9.73;;;4.45;;
55931;SDS011;41837;55.700;37.984;2022-10-13T03:27:54;14.15;;;5.15;;
55931;SDS011;41837;55.700;37.984;2022-10-13T03:30:20;14.07;;;5.30;;
55931;SDS011;41837;55.700;37.984;2022-10-13T03:32:47;9.68;;;5.15;;
55931;SDS011;41837;55.700;37.984;2022-10-13T03:35:12;12.23;;;5.70;;
55931;SDS011;41837;55.700;37.984;2022-10-13T03:37:39;12.80;;;6.03;;
55931;SDS011;41837;55.700;37.984;2022-10-13T03:40:05;14.05;;;5.60;;
55931;SDS011;41837;55.700;37.984;2022-10-13T03:42:34;12.50;;;5.53;;
55931;SDS011;41837;55.700;37.984;2022-10-13T03:45:01;14.55;;;5.53;;
55931;SDS011;41837;55.700;37.984;2022-10-13T03:47:28;11.55;;;5.53;;
55931;SDS011;41837;55.700;37.984;2022-10-13T03:49:55;19.92;;;6.45;;
55931;SDS011;41837;55.700;37.984;2022-10-13T03:52:21;15.65;;;6.50;;
55931;SDS011;41837;55.700;37.984;2022-10-13T03:54:47;15.77;;;5.65;;
55931;SDS011;41837;55.700;37.984;2022-10-13T03:57:14;13.65;;;6.18;;
55931;SDS011;41837;55.700;37.984;2022-10-13T03:59:40;12.27;;;5.90;;
55931;SDS011;41837;55.700;37.984;2022-10-13T04:02:06;15.48;;;5.55;;
55931;SDS011;41837;55.700;37.984;2022-10-13T04:04:33;16.13;;;5.60;;
55931;SDS011;41837;55.700;37.984;2022-10-13T04:07:00;12.75;;;6.13;;
55931;SDS011;41837;55.700;37.984;2022-10-13T04:09:26;12.73;;;6.38;;
55931;SDS011;41837;55.700;37.984;2022-10-13T04:11:52;12.77;;;6.88;;
55931;SDS011;41837;55.700;37.984;2022-10-13T04:14:18;11.52;;;7.40;;
55931;SDS011;41837;55.700;37.984;2022-10-13T04:16:45;12.50;;;7.32;;
55931;SDS011;41837;55.700;37.984;2022-10-13T04:19:11;17.40;;;7.80;;
55931;SDS011;41837;55.700;37.984;2022-10-13T04:21:38;19.50;;;6.85;;
55931;SDS011;41837;55.700;37.984;2022-10-13T04:24:04;14.82;;;7.20;;
55931;SDS011;41837;55.700;37.984;2022-10-13T04:26:31;15.77;;;6.32;;
55931;SDS011;41837;55.700;37.984;2022-10-13T04:29:03;16.48;;;6.93;;
55931;SDS011;41837;55.700;37.984;2022-10-13T04:31:30;13.27;;;6.85;;
55931;SDS011;41837;55.700;37.984;2022-10-13T04:33:56;15.93;;;7.15;;
55931;SDS011;41837;55.700;37.984;2022-10-13T04:36:23;11.75;;;7.18;;
55931;SDS011;41837;55.700;37.984;2022-10-13T04:38:49;15.10;;;7.13;;
55931;SDS011;41837;55.700;37.984;2022-10-13T04:41:16;14.25;;;6.78;;
55931;SDS011;41837;55.700;37.984;2022-10-13T04:43:48;10.23;;;6.55;;
55931;SDS011;41837;55.700;37.984;2022-10-13T04:46:15;12.93;;;6.88;;
55931;SDS011;41837;55.700;37.984;2022-10-13T04:48:43;11.18;;;6.80;;
55931;SDS011;41837;55.700;37.984;2022-10-13T04:51:11;17.75;;;7.10;;
55931;SDS011;41837;55.700;37.984;2022-10-13T04:53:37;12.45;;;6.55;;
55931;SDS011;41837;55.700;37.984;2022-10-13T04:56:08;11.48;;;7.22;;
55931;SDS011;41837;55.700;37.984;2022-10-13T04:58:35;12.68;;;6.95;;
55931;SDS011;41837;55.700;37.984;2022-10-13T05:01:02;18.40;;;7.05;;
55931;SDS011;41837;55.700;37.984;2022-10-13T05:03:29;14.82;;;7.00;;
55931;SDS011;41837;55.700;37.984;2022-10-13T05:05:55;13.18;;;6.93;;
55931;SDS011;41837;55.700;37.984;2022-10-13T05:08:22;16.17;;;7.50;;
55931;SDS011;41837;55.700;37.984;2022-10-13T05:11:00;15.98;;;7.07;;
55931;SDS011;41837;55.700;37.984;2022-10-13T05:13:27;14.93;;;6.60;;
55931;SDS011;41837;55.700;37.984;2022-10-13T05:15:56;11.18;;;6.40;;
55931;SDS011;41837;55.700;37.984;2022-10-13T05:18:23;12.13;;;6.40;;
55931;SDS011;41837;55.700;37.984;2022-10-13T05:20:49;14.13;;;6.38;;
55931;SDS011;41837;55.700;37.984;2022-10-13T05:23:15;12.35;;;6.18;;
55931;SDS011;41837;55.700;37.984;2022-10-13T05:25:41;13.15;;;5.97;;
55931;SDS011;41837;55.700;37.984;2022-10-13T05:28:11;11.00;;;5.65;;
55931;SDS011;41837;55.700;37.984;2022-10-13T05:30:38;15.80;;;6.10;;
55931;SDS011;41837;55.700;37.984;2022-10-13T05:33:04;12.55;;;6.63;;
55931;SDS011;41837;55.700;37.984;2022-10-13T05:35:30;13.98;;;6.15;;
55931;SDS011;41837;55.700;37.984;2022-10-13T05:37:56;9.75;;;6.07;;
55931;SDS011;41837;55.700;37.984;2022-10-13T05:40:22;12.50;;;6.35;;
55931;SDS011;41837;55.700;37.984;2022-10-13T05:42:54;13.45;;;6.18;;
55931;SDS011;41837;55.700;37.984;2022-10-13T05:45:21;13.90;;;6.55;;
55931;SDS011;41837;55.700;37.984;2022-10-13T05:47:48;15.90;;;6.30;;
55931;SDS011;41837;55.700;37.984;2022-10-13T05:50:14;11.27;;;6.50;;
55931;SDS011;41837;55.700;37.984;2022-10-13T05:52:40;14.68;;;6.53;;
55931;SDS011;41837;55.700;37.984;2022-10-13T05:55:07;9.50;;;6.32;;
55931;SDS011;41837;55.700;37.984;2022-10-13T05:57:37;11.02;;;6.25;;
55931;SDS011;41837;55.700;37.984;2022-10-13T06:00:10;11.15;;;5.93;;
55931;SDS011;41837;55.700;37.984;2022-10-13T06:02:48;13.90;;;6.00;;
55931;SDS011;41837;55.700;37.984;2022-10-13T06:05:15;14.67;;;6.00;;
55931;SDS011;41837;55.700;37.984;2022-10-13T06:07:42;13.13;;;6.72;;
55931;SDS011;41837;55.700;37.984;2022-10-13T06:10:09;10.38;;;6.00;;
55931;SDS011;41837;55.700;37.984;2022-10-13T06:12:36;13.57;;;6.22;;
55931;SDS011;41837;55.700;37.984;2022-10-13T06:15:03;11.25;;;5.85;;
55931;SDS011;41837;55.700;37.984;2022-10-13T06:17:30;17.08;;;6.78;;
55931;SDS011;41837;55.700;37.984;2022-10-13T06:19:56;17.70;;;7.03;;
55931;SDS011;41837;55.700;37.984;2022-10-13T06:22:23;20.80;;;6.93;;
55931;SDS011;41837;55.700;37.984;2022-10-13T06:24:50;13.13;;;6.68;;
55931;SDS011;41837;55.700;37.984;2022-10-13T06:27:16;11.93;;;6.07;;
55931;SDS011;41837;55.700;37.984;2022-10-13T06:29:42;14.23;;;6.30;;
55931;SDS011;41837;55.700;37.984;2022-10-13T06:32:08;13.55;;;6.40;;
55931;SDS011;41837;55.700;37.984;2022-10-13T06:34:34;14.73;;;6.72;;
55931;SDS011;41837;55.700;37.984;2022-10-13T06:37:00;13.68;;;6.22;;
55931;SDS011;41837;55.700;37.984;2022-10-13T06:39:26;15.85;;;6.43;;
55931;SDS011;41837;55.700;37.984;2022-10-13T06:41:52;12.68;;;6.55;;
55931;SDS011;41837;55.700;37.984;2022-10-13T06:44:29;15.90;;;6.40;;
55931;SDS011;41837;55.700;37.984;2022-10-13T06:47:01;15.52;;;6.50;;
55931;SDS011;41837;55.700;37.984;2022-10-13T06:49:28;12.50;;;6.40;;
55931;SDS011;41837;55.700;37.984;2022-10-13T06:51:54;14.50;;;6.38;;
55931;SDS011;41837;55.700;37.984;2022-10-13T06:54:21;12.80;;;5.70;;
55931;SDS011;41837;55.700;37.984;2022-10-13T06:56:46;16.65;;;5.50;;
55931;SDS011;41837;55.700;37.984;2022-10-13T06:59:12;10.27;;;5.72;;
55931;SDS011;41837;55.700;37.984;2022-10-13T07:01:39;13.40;;;6.22;;
55931;SDS011;41837;55.700;37.984;2022-10-13T07:04:09;13.35;;;6.40;;
55931;SDS011;41837;55.700;37.984;2022-10-13T07:06:34;14.23;;;6.40;;
55931;SDS011;41837;55.700;37.984;2022-10-13T07:09:04;12.45;;;6.38;;
55931;SDS011;41837;55.700;37.984;2022-10-13T07:11:30;22.17;;;7.88;;
55931;SDS011;41837;55.700;37.984;2022-10-13T07:13:58;16.33;;;7.70;;
55931;SDS011;41837;55.700;37.984;2022-10-13T07:16:24;21.77;;;8.60;;
55931;SDS011;41837;55.700;37.984;2022-10-13T07:18:51;24.05;;;8.93;;
55931;SDS011;41837;55.700;37.984;2022-10-13T07:21:17;20.38;;;9.00;;
55931;SDS011;41837;55.700;37.984;2022-10-13T07:23:44;24.85;;;8.63;;
55931;SDS011;41837;55.700;37.984;2022-10-13T07:26:10;22.80;;;8.25;;
55931;SDS011;41837;55.700;37.984;2022-10-13T07:28:37;25.55;;;8.07;;
55931;SDS011;41837;55.700;37.984;2022-10-13T07:31:07;12.27;;;7.32;;
55931;SDS011;41837;55.700;37.984;2022-10-13T07:33:36;16.48;;;6.70;;
55931;SDS011;41837;55.700;37.984;2022-10-13T07:36:03;18.80;;;6.97;;
55931;SDS011;41837;55.700;37.984;2022-10-13T07:38:30;13.05;;;6.30;;
55931;SDS011;41837;55.700;37.984;2022-10-13T07:40:58;14.40;;;6.22;;
55931;SDS011;41837;55.700;37.984;2022-10-13T07:43:24;19.40;;;8.18;;
55931;SDS011;41837;55.700;37.984;2022-10-13T07:45:50;24.63;;;10.60;;
55931;SDS011;41837;55.700;37.984;2022-10-13T07:48:19;21.63;;;11.98;;
55931;SDS011;41837;55.700;37.984;2022-10-13T07:50:44;19.13;;;10.50;;
55931;SDS011;41837;55.700;37.984;2022-10-13T07:53:12;16.73;;;8.85;;
55931;SDS011;41837;55.700;37.984;2022-10-13T07:55:38;14.68;;;7.50;;
55931;SDS011;41837;55.700;37.984;2022-10-13T07:58:04;20.80;;;8.25;;
55931;SDS011;41837;55.700;37.984;2022-10-13T08:00:32;14.85;;;7.72;;
55931;SDS011;41837;55.700;37.984;2022-10-13T08:02:58;25.27;;;12.38;;
55931;SDS011;41837;55.700;37.984;2022-10-13T08:05:25;20.52;;;9.80;;
55931;SDS011;41837;55.700;37.984;2022-10-13T08:07:51;22.17;;;11.15;;
55931;SDS011;41837;55.700;37.984;2022-10-13T08:10:17;28.58;;;13.25;;
55931;SDS011;41837;55.700;37.984;2022-10-13T08:12:43;21.27;;;11.68;;
55931;SDS011;41837;55.700;37.984;2022-10-13T08:15:12;25.63;;;11.30;;
55931;SDS011;41837;55.700;37.984;2022-10-13T08:17:38;26.23;;;11.23;;
55931;SDS011;41837;55.700;37.984;2022-10-13T08:20:04;21.08;;;9.82;;
55931;SDS011;41837;55.700;37.984;2022-10-13T08:22:31;27.83;;;10.88;;
55931;SDS011;41837;55.700;37.984;2022-10-13T08:24:59;27.85;;;11.68;;
55931;SDS011;41837;55.700;37.984;2022-10-13T08:27:26;18.85;;;8.57;;
55931;SDS011;41837;55.700;37.984;2022-10-13T08:29:52;22.23;;;9.10;;
55931;SDS011;41837;55.700;37.984;2022-10-13T08:32:20;25.10;;;11.90;;
55931;SDS011;41837;55.700;37.984;2022-10-13T08:34:47;22.88;;;11.27;;
55931;SDS011;41837;55.700;37.984;2022-10-13T08:37:14;21.63;;;11.50;;
55931;SDS011;41837;55.700;37.984;2022-10-13T08:39:40;28.45;;;10.95;;
55931;SDS011;41837;55.700;37.984;2022-10-13T08:42:14;21.70;;;9.68;;
55931;SDS011;41837;55.700;37.984;2022-10-13T08:44:49;19.98;;;6.53;;
55931;SDS011;41837;55.700;37.984;2022-10-13T08:49:46;22.83;;;6.22;;
55931;SDS011;41837;55.700;37.984;2022-10-13T08:52:17;19.40;;;9.00;;
55931;SDS011;41837;55.700;37.984;2022-10-13T08:54:45;21.52;;;10.50;;
55931;SDS011;41837;55.700;37.984;2022-10-13T08:57:10;13.45;;;6.63;;
55931;SDS011;41837;55.700;37.984;2022-10-13T08:59:37;44.90;;;25.30;;
55931;SDS011;41837;55.700;37.984;2022-10-13T09:02:14;33.42;;;16.60;;
55931;SDS011;41837;55.700;37.984;2022-10-13T09:04:41;33.00;;;16.45;;
55931;SDS011;41837;55.700;37.984;2022-10-13T09:09:35;36.58;;;21.33;;
55931;SDS011;41837;55.700;37.984;2022-10-13T09:12:02;33.47;;;19.30;;
55931;SDS011;41837;55.700;37.984;2022-10-13T09:14:30;90.00;;;53.70;;
55931;SDS011;41837;55.700;37.984;2022-10-13T09:17:10;27.60;;;12.85;;
55931;SDS011;41837;55.700;37.984;2022-10-13T09:19:36;22.40;;;8.43;;
55931;SDS011;41837;55.700;37.984;2022-10-13T09:27:15;17.92;;;8.35;;
55931;SDS011;41837;55.700;37.984;2022-10-13T09:29:42;20.42;;;9.57;;
55931;SDS011;41837;55.700;37.984;2022-10-13T09:32:15;20.00;;;9.95;;
55931;SDS011;41837;55.700;37.984;2022-10-13T09:34:43;27.45;;;9.70;;
55931;SDS011;41837;55.700;37.984;2022-10-13T09:37:17;20.50;;;9.35;;
55931;SDS011;41837;55.700;37.984;2022-10-13T09:39:44;25.70;;;9.43;;
55931;SDS011;41837;55.700;37.984;2022-10-13T09:44:43;14.45;;;8.20;;
55931;SDS011;41837;55.700;37.984;2022-10-13T09:47:15;18.33;;;7.40;;
55931;SDS011;41837;55.700;37.984;2022-10-13T09:49:43;15.50;;;7.13;;
55931;SDS011;41837;55.700;37.984;2022-10-13T09:52:14;12.80;;;7.28;;
55931;SDS011;41837;55.700;37.984;2022-10-13T09:59:42;13.70;;;6.68;;
55931;SDS011;41837;55.700;37.984;2022-10-13T10:04:45;16.10;;;6.90;;
55931;SDS011;41837;55.700;37.984;2022-10-13T10:07:13;24.20;;;7.68;;
55931;SDS011;41837;55.700;37.984;2022-10-13T10:09:45;10.30;;;5.65;;
55931;SDS011;41837;55.700;37.984;2022-10-13T10:12:14;9.38;;;5.25;;
55931;SDS011;41837;55.700;37.984;2022-10-13T10:14:40;14.55;;;5.00;;
55931;SDS011;41837;55.700;37.984;2022-10-13T10:25:28;7.57;;;5.00;;
55931;SDS011;41837;55.700;37.984;2022-10-13T10:43:31;6.45;;;3.70;;
55931;SDS011;41837;55.700;37.984;2022-10-13T10:46:00;11.68;;;4.47;;
55931;SDS011;41837;55.700;37.984;2022-10-13T10:48:37;8.77;;;3.78;;
55931;SDS011;41837;55.700;37.984;2022-10-13T10:51:07;7.20;;;4.30;;
55931;SDS011;41837;55.700;37.984;2022-10-13T10:53:40;13.60;;;4.80;;
55931;SDS011;41837;55.700;37.984;2022-10-13T10:56:28;12.95;;;3.70;;
55931;SDS011;41837;55.700;37.984;2022-10-13T10:59:21;7.28;;;4.13;;
55931;SDS011;41837;55.700;37.984;2022-10-13T11:06:56;12.07;;;4.60;;
55931;SDS011;41837;55.700;37.984;2022-10-13T11:17:26;5.30;;;3.47;;
55931;SDS011;41837;55.700;37.984;2022-10-13T11:19:53;8.90;;;3.90;;
55931;SDS011;41837;55.700;37.984;2022-10-13T11:22:21;11.60;;;4.65;;
55931;SDS011;41837;55.700;37.984;2022-10-13T11:24:51;6.40;;;4.47;;
55931;SDS011;41837;55.700;37.984;2022-10-13T11:27:21;9.50;;;4.00;;
55931;SDS011;41837;55.700;37.984;2022-10-13T11:29:50;8.82;;;4.25;;
55931;SDS011;41837;55.700;37.984;2022-10-13T11:43:31;17.38;;;4.88;;
55931;SDS011;41837;55.700;37.984;2022-10-13T11:46:02;8.77;;;3.65;;
55931;SDS011;41837;55.700;37.984;2022-10-13T11:48:37;7.90;;;3.75;;
55931;SDS011;41837;55.700;37.984;2022-10-13T11:51:14;11.75;;;4.43;;
55931;SDS011;41837;55.700;37.984;2022-10-13T11:53:51;8.73;;;3.30;;
55931;SDS011;41837;55.700;37.984;2022-10-13T11:56:20;6.40;;;3.60;;
55931;SDS011;41837;55.700;37.984;2022-10-13T11:58:46;9.02;;;3.60;;
55931;SDS011;41837;55.700;37.984;2022-10-13T12:01:13;7.72;;;3.58;;
55931;SDS011;41837;55.700;37.984;2022-10-13T12:03:41;8.63;;;4.15;;
55931;SDS011;41837;55.700;37.984;2022-10-13T12:06:30;8.65;;;3.53;;
55931;SDS011;41837;55.700;37.984;2022-10-13T12:09:17;7.45;;;3.30;;
55931;SDS011;41837;55.700;37.984;2022-10-13T12:11:44;5.78;;;3.10;;
55931;SDS011;41837;55.700;37.984;2022-10-13T12:14:20;8.52;;;3.92;;
55931;SDS011;41837;55.700;37.984;2022-10-13T12:16:53;9.10;;;3.70;;
55931;SDS011;41837;55.700;37.984;2022-10-13T12:19:20;8.38;;;3.83;;
55931;SDS011;41837;55.700;37.984;2022-10-13T12:21:50;12.38;;;4.10;;
55931;SDS011;41837;55.700;37.984;2022-10-13T12:24:16;8.02;;;3.40;;
55931;SDS011;41837;55.700;37.984;2022-10-13T12:26:42;13.25;;;3.42;;
55931;SDS011;41837;55.700;37.984;2022-10-13T12:29:14;6.57;;;3.15;;
55931;SDS011;41837;55.700;37.984;2022-10-13T12:31:44;10.50;;;3.10;;
55931;SDS011;41837;55.700;37.984;2022-10-13T12:34:15;9.38;;;3.50;;
55931;SDS011;41837;55.700;37.984;2022-10-13T12:36:51;13.68;;;3.78;;
55931;SDS011;41837;55.700;37.984;2022-10-13T12:39:19;12.85;;;3.55;;
55931;SDS011;41837;55.700;37.984;2022-10-13T12:41:45;13.95;;;4.70;;
55931;SDS011;41837;55.700;37.984;2022-10-13T12:44:13;13.75;;;5.45;;
55931;SDS011;41837;55.700;37.984;2022-10-13T12:46:41;9.95;;;4.13;;
55931;SDS011;41837;55.700;37.984;2022-10-13T12:49:18;8.48;;;3.88;;
55931;SDS011;41837;55.700;37.984;2022-10-13T12:51:49;8.45;;;3.97;;
55931;SDS011;41837;55.700;37.984;2022-10-13T12:54:17;12.18;;;3.95;;
55931;SDS011;41837;55.700;37.984;2022-10-13T12:56:43;6.93;;;3.60;;
55931;SDS011;41837;55.700;37.984;2022-10-13T12:59:16;13.00;;;4.25;;
55931;SDS011;41837;55.700;37.984;2022-10-13T13:01:54;13.25;;;3.83;;
55931;SDS011;41837;55.700;37.984;2022-10-13T13:04:37;10.30;;;4.20;;
55931;SDS011;41837;55.700;37.984;2022-10-13T13:07:04;10.35;;;3.00;;
55931;SDS011;41837;55.700;37.984;2022-10-13T13:09:31;7.78;;;3.20;;
55931;SDS011;41837;55.700;37.984;2022-10-13T13:14:40;9.77;;;3.67;;
55931;SDS011;41837;55.700;37.984;2022-10-13T13:17:10;12.85;;;4.10;;
55931;SDS011;41837;55.700;37.984;2022-10-13T13:19:37;15.50;;;5.43;;
55931;SDS011;41837;55.700;37.984;2022-10-13T13:22:04;22.73;;;7.03;;
55931;SDS011;41837;55.700;37.984;2022-10-13T13:24:30;17.65;;;7.63;;
55931;SDS011;41837;55.700;37.984;2022-10-13T13:26:56;18.05;;;5.47;;
55931;SDS011;41837;55.700;37.984;2022-10-13T13:29:22;11.65;;;4.30;;
55931;SDS011;41837;55.700;37.984;2022-10-13T13:31:47;6.15;;;3.28;;
55931;SDS011;41837;55.700;37.984;2022-10-13T13:34:13;13.15;;;3.50;;
55931;SDS011;41837;55.700;37.984;2022-10-13T13:36:39;20.67;;;8.45;;
55931;SDS011;41837;55.700;37.984;2022-10-13T13:39:13;8.57;;;2.95;;
55931;SDS011;41837;55.700;37.984;2022-10-13T13:41:41;9.00;;;3.17;;
55931;SDS011;41837;55.700;37.984;2022-10-13T13:44:07;6.57;;;2.92;;
55931;SDS011;41837;55.700;37.984;2022-10-13T13:46:33;11.60;;;4.00;;
55931;SDS011;41837;55.700;37.984;2022-10-13T13:48:59;10.02;;;2.83;;
55931;SDS011;41837;55.700;37.984;2022-10-13T13:51:26;9.65;;;3.65;;
55931;SDS011;41837;55.700;37.984;2022-10-13T13:53:52;8.52;;;2.92;;
55931;SDS011;41837;55.700;37.984;2022-10-13T13:56:18;11.38;;;3.50;;
55931;SDS011;41837;55.700;37.984;2022-10-13T13:58:45;11.70;;;3.90;;
55931;SDS011;41837;55.700;37.984;2022-10-13T14:01:13;12.00;;;3.88;;
55931;SDS011;41837;55.700;37.984;2022-10-13T14:03:39;10.88;;;4.57;;
55931;SDS011;41837;55.700;37.984;2022-10-13T14:06:07;13.75;;;5.20;;
55931;SDS011;41837;55.700;37.984;2022-10-13T14:08:34;14.52;;;4.43;;
55931;SDS011;41837;55.700;37.984;2022-10-13T14:11:06;13.30;;;4.18;;
55931;SDS011;41837;55.700;37.984;2022-10-13T14:13:32;6.60;;;3.30;;
55931;SDS011;41837;55.700;37.984;2022-10-13T14:15:59;7.30;;;3.45;;
55931;SDS011;41837;55.700;37.984;2022-10-13T14:18:25;6.40;;;3.42;;
55931;SDS011;41837;55.700;37.984;2022-10-13T14:20:53;5.00;;;2.75;;
55931;SDS011;41837;55.700;37.984;2022-10-13T14:23:18;11.95;;;3.10;;
55931;SDS011;41837;55.700;37.984;2022-10-13T14:25:45;5.30;;;3.63;;
55931;SDS011;41837;55.700;37.984;2022-10-13T14:28:11;14.27;;;4.47;;
55931;SDS011;41837;55.700;37.984;2022-10-13T14:30:37;8.57;;;3.50;;
55931;SDS011;41837;55.700;37.984;2022-10-13T14:33:03;13.35;;;4.95;;
55931;SDS011;41837;55.700;37.984;2022-10-13T14:35:30;9.98;;;3.47;;
55931;SDS011;41837;55.700;37.984;2022-10-13T14:37:56;9.13;;;3.92;;
55931;SDS011;41837;55.700;37.984;2022-10-13T14:40:23;10.35;;;4.07;;
55931;SDS011;41837;55.700;37.984;2022-10-13T14:42:48;8.48;;;4.30;;
55931;SDS011;41837;55.700;37.984;2022-10-13T14:45:15;15.35;;;5.10;;
55931;SDS011;41837;55.700;37.984;2022-10-13T14:47:41;9.40;;;5.22;;
55931;SDS011;41837;55.700;37.984;2022-10-13T14:50:07;10.65;;;5.07;;
55931;SDS011;41837;55.700;37.984;2022-10-13T14:52:33;25.02;;;6.90;;
55931;SDS011;41837;55.700;37.984;2022-10-13T14:55:00;15.45;;;6.30;;
55931;SDS011;41837;55.700;37.984;2022-10-13T14:57:26;9.77;;;5.00;;
55931;SDS011;41837;55.700;37.984;2022-10-13T14:59:52;22.25;;;6.32;;
55931;SDS011;41837;55.700;37.984;2022-10-13T15:02:18;13.63;;;6.10;;
55931;SDS011;41837;55.700;37.984;2022-10-13T15:04:51;9.25;;;5.97;;
55931;SDS011;41837;55.700;37.984;2022-10-13T15:07:18;16.88;;;6.85;;
55931;SDS011;41837;55.700;37.984;2022-10-13T15:09:44;12.30;;;6.40;;
55931;SDS011;41837;55.700;37.984;2022-10-13T15:12:12;19.45;;;7.75;;
55931;SDS011;41837;55.700;37.984;2022-10-13T15:14:38;17.50;;;7.82;;
55931;SDS011;41837;55.700;37.984;2022-10-13T15:17:04;17.38;;;7.32;;
55931;SDS011;41837;55.700;37.984;2022-10-13T15:19:30;16.08;;;7.18;;
55931;SDS011;41837;55.700;37.984;2022-10-13T15:21:56;21.25;;;8.50;;
55931;SDS011;41837;55.700;37.984;2022-10-13T15:24:21;18.25;;;7.55;;
55931;SDS011;41837;55.700;37.984;2022-10-13T15:26:51;18.90;;;8.20;;
55931;SDS011;41837;55.700;37.984;2022-10-13T15:29:17;18.67;;;8.73;;
55931;SDS011;41837;55.700;37.984;2022-10-13T15:31:43;19.77;;;9.52;;
55931;SDS011;41837;55.700;37.984;2022-10-13T15:34:09;17.70;;;10.55;;
55931;SDS011;41837;55.700;37.984;2022-10-13T15:36:35;16.10;;;8.52;;
55931;SDS011;41837;55.700;37.984;2022-10-13T15:39:01;14.55;;;9.13;;
55931;SDS011;41837;55.700;37.984;2022-10-13T15:41:28;16.13;;;7.40;;
55931;SDS011;41837;55.700;37.984;2022-10-13T15:43:54;21.80;;;8.80;;
55931;SDS011;41837;55.700;37.984;2022-10-13T15:46:20;16.15;;;9.35;;
55931;SDS011;41837;55.700;37.984;2022-10-13T15:48:49;23.50;;;8.98;;
55931;SDS011;41837;55.700;37.984;2022-10-13T15:51:17;22.08;;;9.48;;
55931;SDS011;41837;55.700;37.984;2022-10-13T15:53:44;17.05;;;8.30;;
55931;SDS011;41837;55.700;37.984;2022-10-13T15:56:10;16.65;;;8.02;;
55931;SDS011;41837;55.700;37.984;2022-10-13T15:58:36;20.27;;;8.45;;
55931;SDS011;41837;55.700;37.984;2022-10-13T16:01:09;16.40;;;8.25;;
55931;SDS011;41837;55.700;37.984;2022-10-13T16:03:36;16.45;;;8.70;;
55931;SDS011;41837;55.700;37.984;2022-10-13T16:06:03;15.57;;;8.73;;
55931;SDS011;41837;55.700;37.984;2022-10-13T16:08:30;19.48;;;8.32;;